sensor_id;sensor_type;location;lat;lon;timestamp;P1;durP1;ratioP1;P2;durP2;ratioP2
8458;SDS011;4266;48.816;9.154;2023-12-22T00:02:06;4.80;;;3.10;;
8458;SDS011;4266;48.816;9.154;2023-12-22T00:04:32;4.97;;;3.43;;
8458;SDS011;4266;48.816;9.154;2023-12-22T00:06:58;4.60;;;3.00;;
8458;SDS011;4266;48.816;9.154;2023-12-22T00:09:24;5.43;;;2.90;;
8458;SDS011;4266;48.816;9.154;2023-12-22T00:11:50;4.97;;;3.30;;
8458;SDS011;4266;48.816;9.154;2023-12-22T00:14:15;3.63;;;3.33;;
8458;SDS011;4266;48.816;9.154;2023-12-22T00:16:41;6.37;;;4.10;;
8458;SDS011;4266;48.816;9.154;2023-12-22T00:19:08;8.33;;;3.57;;
8458;SDS011;4266;48.816;9.154;2023-12-22T00:21:34;5.67;;;3.50;;
8458;SDS011;4266;48.816;9.154;2023-12-22T00:24:00;7.60;;;3.63;;
8458;SDS011;4266;48.816;9.154;2023-12-22T00:26:25;6.30;;;4.00;;
8458;SDS011;4266;48.816;9.154;2023-12-22T00:28:51;8.13;;;4.00;;
8458;SDS011;4266;48.816;9.154;2023-12-22T00:31:17;9.80;;;3.60;;
8458;SDS011;4266;48.816;9.154;2023-12-22T00:33:43;7.10;;;3.93;;
8458;SDS011;4266;48.816;9.154;2023-12-22T00:36:09;5.53;;;2.83;;
8458;SDS011;4266;48.816;9.154;2023-12-22T00:38:34;8.50;;;3.40;;
8458;SDS011;4266;48.816;9.154;2023-12-22T00:41:00;4.40;;;2.57;;
8458;SDS011;4266;48.816;9.154;2023-12-22T00:43:27;5.37;;;3.17;;
8458;SDS011;4266;48.816;9.154;2023-12-22T00:45:52;5.17;;;3.07;;
8458;SDS011;4266;48.816;9.154;2023-12-22T00:48:18;7.47;;;3.00;;
8458;SDS011;4266;48.816;9.154;2023-12-22T00:50:44;3.80;;;3.23;;
8458;SDS011;4266;48.816;9.154;2023-12-22T00:53:10;3.13;;;2.63;;
8458;SDS011;4266;48.816;9.154;2023-12-22T00:55:36;4.20;;;3.00;;
8458;SDS011;4266;48.816;9.154;2023-12-22T00:58:02;5.23;;;2.77;;
8458;SDS011;4266;48.816;9.154;2023-12-22T01:00:28;4.07;;;3.00;;
8458;SDS011;4266;48.816;9.154;2023-12-22T01:02:55;3.90;;;3.07;;
8458;SDS011;4266;48.816;9.154;2023-12-22T01:05:20;5.23;;;3.40;;
8458;SDS011;4266;48.816;9.154;2023-12-22T01:07:46;4.60;;;3.20;;
8458;SDS011;4266;48.816;9.154;2023-12-22T01:10:12;6.20;;;2.87;;
8458;SDS011;4266;48.816;9.154;2023-12-22T01:12:38;5.50;;;2.87;;
8458;SDS011;4266;48.816;9.154;2023-12-22T01:15:04;4.20;;;3.20;;
8458;SDS011;4266;48.816;9.154;2023-12-22T01:17:31;4.73;;;3.10;;
8458;SDS011;4266;48.816;9.154;2023-12-22T01:19:57;6.43;;;3.40;;
8458;SDS011;4266;48.816;9.154;2023-12-22T01:22:23;7.97;;;3.07;;
8458;SDS011;4266;48.816;9.154;2023-12-22T01:24:48;6.17;;;3.20;;
8458;SDS011;4266;48.816;9.154;2023-12-22T01:27:14;4.27;;;3.07;;
8458;SDS011;4266;48.816;9.154;2023-12-22T01:29:40;8.43;;;3.37;;
8458;SDS011;4266;48.816;9.154;2023-12-22T01:32:06;5.07;;;3.20;;
8458;SDS011;4266;48.816;9.154;2023-12-22T01:34:32;5.37;;;3.40;;
8458;SDS011;4266;48.816;9.154;2023-12-22T01:36:57;6.57;;;3.40;;
8458;SDS011;4266;48.816;9.154;2023-12-22T01:39:23;8.97;;;3.17;;
8458;SDS011;4266;48.816;9.154;2023-12-22T01:41:49;5.00;;;3.20;;
8458;SDS011;4266;48.816;9.154;2023-12-22T01:44:14;5.33;;;3.23;;
8458;SDS011;4266;48.816;9.154;2023-12-22T01:46:40;5.80;;;3.30;;
8458;SDS011;4266;48.816;9.154;2023-12-22T01:49:06;4.87;;;2.60;;
8458;SDS011;4266;48.816;9.154;2023-12-22T01:51:32;3.83;;;3.43;;
8458;SDS011;4266;48.816;9.154;2023-12-22T01:53:58;3.50;;;3.20;;
8458;SDS011;4266;48.816;9.154;2023-12-22T01:56:23;7.87;;;3.37;;
8458;SDS011;4266;48.816;9.154;2023-12-22T01:58:50;4.10;;;2.80;;
8458;SDS011;4266;48.816;9.154;2023-12-22T02:01:16;5.27;;;2.90;;
8458;SDS011;4266;48.816;9.154;2023-12-22T02:03:42;4.83;;;2.77;;
8458;SDS011;4266;48.816;9.154;2023-12-22T02:06:09;4.40;;;2.40;;
8458;SDS011;4266;48.816;9.154;2023-12-22T02:08:34;5.13;;;2.40;;
8458;SDS011;4266;48.816;9.154;2023-12-22T02:11:01;3.07;;;2.70;;
8458;SDS011;4266;48.816;9.154;2023-12-22T02:13:26;2.73;;;2.40;;
8458;SDS011;4266;48.816;9.154;2023-12-22T02:15:59;3.83;;;2.77;;
8458;SDS011;4266;48.816;9.154;2023-12-22T02:18:19;4.20;;;2.87;;
8458;SDS011;4266;48.816;9.154;2023-12-22T02:20:43;4.30;;;3.27;;
8458;SDS011;4266;48.816;9.154;2023-12-22T02:23:09;3.67;;;2.97;;
8458;SDS011;4266;48.816;9.154;2023-12-22T02:25:35;4.80;;;3.27;;
8458;SDS011;4266;48.816;9.154;2023-12-22T02:28:03;9.03;;;2.80;;
8458;SDS011;4266;48.816;9.154;2023-12-22T02:30:32;2.87;;;2.67;;
8458;SDS011;4266;48.816;9.154;2023-12-22T02:32:59;4.37;;;2.50;;
8458;SDS011;4266;48.816;9.154;2023-12-22T02:35:24;3.53;;;2.43;;
8458;SDS011;4266;48.816;9.154;2023-12-22T02:37:50;3.77;;;3.13;;
8458;SDS011;4266;48.816;9.154;2023-12-22T02:40:16;4.03;;;2.93;;
8458;SDS011;4266;48.816;9.154;2023-12-22T02:42:42;4.37;;;2.63;;
8458;SDS011;4266;48.816;9.154;2023-12-22T02:45:12;4.33;;;2.87;;
8458;SDS011;4266;48.816;9.154;2023-12-22T02:47:33;5.23;;;2.70;;
8458;SDS011;4266;48.816;9.154;2023-12-22T02:49:59;7.27;;;3.53;;
8458;SDS011;4266;48.816;9.154;2023-12-22T02:52:25;3.57;;;2.67;;
8458;SDS011;4266;48.816;9.154;2023-12-22T02:54:50;6.47;;;3.07;;
8458;SDS011;4266;48.816;9.154;2023-12-22T02:57:16;4.10;;;2.80;;
8458;SDS011;4266;48.816;9.154;2023-12-22T02:59:42;5.60;;;3.23;;
8458;SDS011;4266;48.816;9.154;2023-12-22T03:02:07;5.47;;;3.07;;
8458;SDS011;4266;48.816;9.154;2023-12-22T03:04:34;3.80;;;2.80;;
8458;SDS011;4266;48.816;9.154;2023-12-22T03:07:00;7.17;;;3.33;;
8458;SDS011;4266;48.816;9.154;2023-12-22T03:09:26;5.10;;;2.97;;
8458;SDS011;4266;48.816;9.154;2023-12-22T03:11:52;4.73;;;3.27;;
8458;SDS011;4266;48.816;9.154;2023-12-22T03:14:18;4.57;;;3.00;;
8458;SDS011;4266;48.816;9.154;2023-12-22T03:16:44;13.27;;;3.70;;
8458;SDS011;4266;48.816;9.154;2023-12-22T03:19:09;5.17;;;2.97;;
8458;SDS011;4266;48.816;9.154;2023-12-22T03:21:36;6.13;;;3.00;;
8458;SDS011;4266;48.816;9.154;2023-12-22T03:24:03;7.20;;;3.00;;
8458;SDS011;4266;48.816;9.154;2023-12-22T03:26:28;8.27;;;3.10;;
8458;SDS011;4266;48.816;9.154;2023-12-22T03:28:55;6.57;;;3.07;;
8458;SDS011;4266;48.816;9.154;2023-12-22T03:31:21;4.37;;;2.70;;
8458;SDS011;4266;48.816;9.154;2023-12-22T03:33:47;6.43;;;2.67;;
8458;SDS011;4266;48.816;9.154;2023-12-22T03:36:13;4.47;;;3.43;;
8458;SDS011;4266;48.816;9.154;2023-12-22T03:38:38;4.73;;;2.90;;
8458;SDS011;4266;48.816;9.154;2023-12-22T03:41:04;6.93;;;3.47;;
8458;SDS011;4266;48.816;9.154;2023-12-22T03:43:30;4.83;;;3.43;;
8458;SDS011;4266;48.816;9.154;2023-12-22T03:45:55;5.53;;;2.67;;
8458;SDS011;4266;48.816;9.154;2023-12-22T03:48:21;6.90;;;3.47;;
8458;SDS011;4266;48.816;9.154;2023-12-22T03:50:47;4.70;;;3.07;;
8458;SDS011;4266;48.816;9.154;2023-12-22T03:53:23;4.50;;;3.07;;
8458;SDS011;4266;48.816;9.154;2023-12-22T03:55:50;4.67;;;3.00;;
8458;SDS011;4266;48.816;9.154;2023-12-22T03:58:16;4.20;;;2.90;;
8458;SDS011;4266;48.816;9.154;2023-12-22T04:00:42;5.30;;;3.30;;
8458;SDS011;4266;48.816;9.154;2023-12-22T04:03:08;6.10;;;3.33;;
8458;SDS011;4266;48.816;9.154;2023-12-22T04:05:33;7.23;;;3.80;;
8458;SDS011;4266;48.816;9.154;2023-12-22T04:07:59;6.20;;;3.00;;
8458;SDS011;4266;48.816;9.154;2023-12-22T04:10:26;4.90;;;3.07;;
8458;SDS011;4266;48.816;9.154;2023-12-22T04:12:52;7.27;;;3.57;;
8458;SDS011;4266;48.816;9.154;2023-12-22T04:15:18;7.03;;;3.37;;
8458;SDS011;4266;48.816;9.154;2023-12-22T04:17:43;5.53;;;3.70;;
8458;SDS011;4266;48.816;9.154;2023-12-22T04:20:10;8.07;;;3.73;;
8458;SDS011;4266;48.816;9.154;2023-12-22T04:22:36;6.20;;;3.50;;
8458;SDS011;4266;48.816;9.154;2023-12-22T04:25:01;6.33;;;3.90;;
8458;SDS011;4266;48.816;9.154;2023-12-22T04:27:28;5.00;;;3.20;;
8458;SDS011;4266;48.816;9.154;2023-12-22T04:29:54;7.80;;;3.87;;
8458;SDS011;4266;48.816;9.154;2023-12-22T04:32:20;7.33;;;3.40;;
8458;SDS011;4266;48.816;9.154;2023-12-22T04:34:47;4.53;;;3.50;;
8458;SDS011;4266;48.816;9.154;2023-12-22T04:37:12;5.07;;;3.00;;
8458;SDS011;4266;48.816;9.154;2023-12-22T04:39:38;6.73;;;3.87;;
8458;SDS011;4266;48.816;9.154;2023-12-22T04:42:04;7.17;;;3.50;;
8458;SDS011;4266;48.816;9.154;2023-12-22T04:44:30;7.23;;;3.40;;
8458;SDS011;4266;48.816;9.154;2023-12-22T04:46:56;6.00;;;3.03;;
8458;SDS011;4266;48.816;9.154;2023-12-22T04:49:22;4.50;;;2.87;;
8458;SDS011;4266;48.816;9.154;2023-12-22T04:51:48;8.40;;;3.17;;
8458;SDS011;4266;48.816;9.154;2023-12-22T04:54:14;10.20;;;3.10;;
8458;SDS011;4266;48.816;9.154;2023-12-22T04:56:40;6.93;;;3.00;;
8458;SDS011;4266;48.816;9.154;2023-12-22T04:59:06;4.67;;;3.00;;
8458;SDS011;4266;48.816;9.154;2023-12-22T05:01:31;4.33;;;2.90;;
8458;SDS011;4266;48.816;9.154;2023-12-22T05:03:58;6.13;;;3.33;;
8458;SDS011;4266;48.816;9.154;2023-12-22T05:06:24;6.10;;;3.50;;
8458;SDS011;4266;48.816;9.154;2023-12-22T05:08:50;8.77;;;3.83;;
8458;SDS011;4266;48.816;9.154;2023-12-22T05:11:15;5.50;;;3.60;;
8458;SDS011;4266;48.816;9.154;2023-12-22T05:13:41;5.13;;;3.17;;
8458;SDS011;4266;48.816;9.154;2023-12-22T05:16:08;7.13;;;3.40;;
8458;SDS011;4266;48.816;9.154;2023-12-22T05:18:33;8.63;;;3.77;;
8458;SDS011;4266;48.816;9.154;2023-12-22T05:20:59;9.87;;;3.80;;
8458;SDS011;4266;48.816;9.154;2023-12-22T05:23:25;10.73;;;4.30;;
8458;SDS011;4266;48.816;9.154;2023-12-22T05:25:51;8.00;;;4.10;;
8458;SDS011;4266;48.816;9.154;2023-12-22T05:28:17;11.33;;;4.53;;
8458;SDS011;4266;48.816;9.154;2023-12-22T05:30:42;9.00;;;4.07;;
8458;SDS011;4266;48.816;9.154;2023-12-22T05:33:08;11.53;;;4.33;;
8458;SDS011;4266;48.816;9.154;2023-12-22T05:35:34;11.47;;;4.30;;
8458;SDS011;4266;48.816;9.154;2023-12-22T05:37:59;10.07;;;4.60;;
8458;SDS011;4266;48.816;9.154;2023-12-22T05:40:25;12.40;;;4.53;;
8458;SDS011;4266;48.816;9.154;2023-12-22T05:42:51;10.13;;;4.27;;
8458;SDS011;4266;48.816;9.154;2023-12-22T05:45:17;9.07;;;4.10;;
8458;SDS011;4266;48.816;9.154;2023-12-22T05:47:43;8.53;;;3.53;;
8458;SDS011;4266;48.816;9.154;2023-12-22T05:50:09;11.27;;;4.93;;
8458;SDS011;4266;48.816;9.154;2023-12-22T05:52:35;9.83;;;3.80;;
8458;SDS011;4266;48.816;9.154;2023-12-22T05:55:00;11.17;;;4.33;;
8458;SDS011;4266;48.816;9.154;2023-12-22T05:57:26;12.50;;;4.53;;
8458;SDS011;4266;48.816;9.154;2023-12-22T05:59:53;11.17;;;4.30;;
8458;SDS011;4266;48.816;9.154;2023-12-22T06:02:18;11.37;;;4.23;;
8458;SDS011;4266;48.816;9.154;2023-12-22T06:04:44;8.73;;;3.97;;
8458;SDS011;4266;48.816;9.154;2023-12-22T06:07:10;10.83;;;4.83;;
8458;SDS011;4266;48.816;9.154;2023-12-22T06:09:35;8.87;;;4.57;;
8458;SDS011;4266;48.816;9.154;2023-12-22T06:12:01;8.57;;;3.97;;
8458;SDS011;4266;48.816;9.154;2023-12-22T06:14:27;12.50;;;4.07;;
8458;SDS011;4266;48.816;9.154;2023-12-22T06:16:52;11.00;;;4.03;;
8458;SDS011;4266;48.816;9.154;2023-12-22T06:19:18;16.90;;;5.00;;
8458;SDS011;4266;48.816;9.154;2023-12-22T06:21:44;8.23;;;3.73;;
8458;SDS011;4266;48.816;9.154;2023-12-22T06:24:09;12.33;;;4.53;;
8458;SDS011;4266;48.816;9.154;2023-12-22T06:26:36;10.47;;;4.53;;
8458;SDS011;4266;48.816;9.154;2023-12-22T06:29:02;13.00;;;4.37;;
8458;SDS011;4266;48.816;9.154;2023-12-22T06:31:27;13.57;;;4.20;;
8458;SDS011;4266;48.816;9.154;2023-12-22T06:33:54;13.60;;;4.33;;
8458;SDS011;4266;48.816;9.154;2023-12-22T06:36:20;11.93;;;4.73;;
8458;SDS011;4266;48.816;9.154;2023-12-22T06:38:46;8.57;;;3.77;;
8458;SDS011;4266;48.816;9.154;2023-12-22T06:43:44;10.83;;;4.33;;
8458;SDS011;4266;48.816;9.154;2023-12-22T06:46:15;10.57;;;4.30;;
8458;SDS011;4266;48.816;9.154;2023-12-22T06:48:41;8.10;;;4.00;;
8458;SDS011;4266;48.816;9.154;2023-12-22T06:51:07;9.40;;;4.07;;
8458;SDS011;4266;48.816;9.154;2023-12-22T06:53:32;9.57;;;4.57;;
8458;SDS011;4266;48.816;9.154;2023-12-22T06:55:58;7.77;;;3.50;;
8458;SDS011;4266;48.816;9.154;2023-12-22T06:58:25;6.27;;;3.90;;
8458;SDS011;4266;48.816;9.154;2023-12-22T07:00:50;9.90;;;4.10;;
8458;SDS011;4266;48.816;9.154;2023-12-22T07:03:16;9.60;;;4.10;;
8458;SDS011;4266;48.816;9.154;2023-12-22T07:05:42;11.00;;;4.27;;
8458;SDS011;4266;48.816;9.154;2023-12-22T07:08:07;6.17;;;3.77;;
8458;SDS011;4266;48.816;9.154;2023-12-22T07:10:33;10.20;;;4.33;;
8458;SDS011;4266;48.816;9.154;2023-12-22T07:12:59;8.80;;;4.00;;
8458;SDS011;4266;48.816;9.154;2023-12-22T07:15:24;10.07;;;4.17;;
8458;SDS011;4266;48.816;9.154;2023-12-22T07:17:50;8.13;;;4.10;;
8458;SDS011;4266;48.816;9.154;2023-12-22T07:20:16;9.07;;;3.90;;
8458;SDS011;4266;48.816;9.154;2023-12-22T07:22:44;12.73;;;4.43;;
8458;SDS011;4266;48.816;9.154;2023-12-22T07:25:08;13.13;;;4.10;;
8458;SDS011;4266;48.816;9.154;2023-12-22T07:27:34;10.07;;;3.87;;
8458;SDS011;4266;48.816;9.154;2023-12-22T07:29:59;12.53;;;4.50;;
8458;SDS011;4266;48.816;9.154;2023-12-22T07:32:25;6.93;;;3.80;;
8458;SDS011;4266;48.816;9.154;2023-12-22T07:34:51;8.93;;;3.97;;
8458;SDS011;4266;48.816;9.154;2023-12-22T07:37:16;7.77;;;4.00;;
8458;SDS011;4266;48.816;9.154;2023-12-22T07:39:42;8.43;;;3.43;;
8458;SDS011;4266;48.816;9.154;2023-12-22T07:42:08;7.23;;;3.60;;
8458;SDS011;4266;48.816;9.154;2023-12-22T07:44:33;10.27;;;3.97;;
8458;SDS011;4266;48.816;9.154;2023-12-22T07:46:59;5.60;;;3.33;;
8458;SDS011;4266;48.816;9.154;2023-12-22T07:49:25;5.10;;;3.47;;
8458;SDS011;4266;48.816;9.154;2023-12-22T07:51:51;7.37;;;3.47;;
8458;SDS011;4266;48.816;9.154;2023-12-22T07:54:17;6.13;;;4.57;;
8458;SDS011;4266;48.816;9.154;2023-12-22T07:56:42;6.37;;;3.37;;
8458;SDS011;4266;48.816;9.154;2023-12-22T07:59:08;5.77;;;3.40;;
8458;SDS011;4266;48.816;9.154;2023-12-22T08:01:34;5.63;;;3.47;;
8458;SDS011;4266;48.816;9.154;2023-12-22T08:04:00;7.10;;;3.43;;
8458;SDS011;4266;48.816;9.154;2023-12-22T08:06:26;6.47;;;4.07;;
8458;SDS011;4266;48.816;9.154;2023-12-22T08:08:52;6.00;;;3.50;;
8458;SDS011;4266;48.816;9.154;2023-12-22T08:11:17;8.87;;;3.50;;
8458;SDS011;4266;48.816;9.154;2023-12-22T08:13:44;7.43;;;3.53;;
8458;SDS011;4266;48.816;9.154;2023-12-22T08:16:10;9.20;;;3.50;;
8458;SDS011;4266;48.816;9.154;2023-12-22T08:18:36;6.57;;;3.30;;
8458;SDS011;4266;48.816;9.154;2023-12-22T08:21:03;5.40;;;3.30;;
8458;SDS011;4266;48.816;9.154;2023-12-22T08:23:29;7.90;;;3.73;;
8458;SDS011;4266;48.816;9.154;2023-12-22T08:25:54;7.83;;;3.50;;
8458;SDS011;4266;48.816;9.154;2023-12-22T08:28:21;7.20;;;3.87;;
8458;SDS011;4266;48.816;9.154;2023-12-22T08:30:46;8.10;;;3.60;;
8458;SDS011;4266;48.816;9.154;2023-12-22T08:33:12;8.60;;;3.93;;
8458;SDS011;4266;48.816;9.154;2023-12-22T08:35:38;10.37;;;4.07;;
8458;SDS011;4266;48.816;9.154;2023-12-22T08:38:03;11.83;;;4.30;;
8458;SDS011;4266;48.816;9.154;2023-12-22T08:40:30;8.30;;;4.07;;
8458;SDS011;4266;48.816;9.154;2023-12-22T08:42:56;15.70;;;5.10;;
8458;SDS011;4266;48.816;9.154;2023-12-22T08:45:23;12.07;;;4.40;;
8458;SDS011;4266;48.816;9.154;2023-12-22T08:47:49;14.57;;;4.73;;
8458;SDS011;4266;48.816;9.154;2023-12-22T08:50:14;13.37;;;4.40;;
8458;SDS011;4266;48.816;9.154;2023-12-22T08:52:41;11.33;;;4.20;;
8458;SDS011;4266;48.816;9.154;2023-12-22T08:55:06;11.70;;;4.70;;
8458;SDS011;4266;48.816;9.154;2023-12-22T08:57:32;12.67;;;4.60;;
8458;SDS011;4266;48.816;9.154;2023-12-22T08:59:59;14.57;;;4.60;;
8458;SDS011;4266;48.816;9.154;2023-12-22T09:02:24;10.30;;;5.00;;
8458;SDS011;4266;48.816;9.154;2023-12-22T09:04:50;13.43;;;4.87;;
8458;SDS011;4266;48.816;9.154;2023-12-22T09:07:16;16.03;;;5.00;;
8458;SDS011;4266;48.816;9.154;2023-12-22T09:09:41;16.87;;;5.47;;
8458;SDS011;4266;48.816;9.154;2023-12-22T09:12:08;23.77;;;5.10;;
8458;SDS011;4266;48.816;9.154;2023-12-22T09:14:33;25.37;;;6.87;;
8458;SDS011;4266;48.816;9.154;2023-12-22T09:16:59;13.93;;;5.23;;
8458;SDS011;4266;48.816;9.154;2023-12-22T09:19:25;14.83;;;5.07;;
8458;SDS011;4266;48.816;9.154;2023-12-22T09:21:50;19.60;;;5.43;;
8458;SDS011;4266;48.816;9.154;2023-12-22T09:24:16;16.97;;;5.20;;
8458;SDS011;4266;48.816;9.154;2023-12-22T09:26:42;14.20;;;4.20;;
8458;SDS011;4266;48.816;9.154;2023-12-22T09:29:07;10.20;;;5.10;;
8458;SDS011;4266;48.816;9.154;2023-12-22T09:31:33;13.73;;;4.90;;
8458;SDS011;4266;48.816;9.154;2023-12-22T09:33:59;13.03;;;4.47;;
8458;SDS011;4266;48.816;9.154;2023-12-22T09:36:24;12.23;;;5.03;;
8458;SDS011;4266;48.816;9.154;2023-12-22T09:38:50;12.17;;;4.63;;
8458;SDS011;4266;48.816;9.154;2023-12-22T09:41:16;16.67;;;5.33;;
8458;SDS011;4266;48.816;9.154;2023-12-22T09:43:41;14.20;;;5.10;;
8458;SDS011;4266;48.816;9.154;2023-12-22T09:46:07;12.83;;;4.80;;
8458;SDS011;4266;48.816;9.154;2023-12-22T09:48:34;15.33;;;5.47;;
8458;SDS011;4266;48.816;9.154;2023-12-22T09:51:01;18.57;;;5.43;;
8458;SDS011;4266;48.816;9.154;2023-12-22T09:53:26;19.37;;;5.63;;
8458;SDS011;4266;48.816;9.154;2023-12-22T09:56:00;15.60;;;5.00;;
8458;SDS011;4266;48.816;9.154;2023-12-22T09:58:27;12.30;;;5.27;;
8458;SDS011;4266;48.816;9.154;2023-12-22T10:00:53;9.13;;;4.63;;
8458;SDS011;4266;48.816;9.154;2023-12-22T10:03:19;14.63;;;5.67;;
8458;SDS011;4266;48.816;9.154;2023-12-22T10:05:46;14.87;;;4.60;;
8458;SDS011;4266;48.816;9.154;2023-12-22T10:08:11;19.80;;;5.13;;
8458;SDS011;4266;48.816;9.154;2023-12-22T10:10:38;14.93;;;5.30;;
8458;SDS011;4266;48.816;9.154;2023-12-22T10:13:04;12.17;;;4.90;;
8458;SDS011;4266;48.816;9.154;2023-12-22T10:15:29;19.47;;;5.43;;
8458;SDS011;4266;48.816;9.154;2023-12-22T10:17:56;17.53;;;5.47;;
8458;SDS011;4266;48.816;9.154;2023-12-22T10:20:21;17.63;;;5.70;;
8458;SDS011;4266;48.816;9.154;2023-12-22T10:22:47;17.07;;;5.40;;
8458;SDS011;4266;48.816;9.154;2023-12-22T10:25:15;17.27;;;5.63;;
8458;SDS011;4266;48.816;9.154;2023-12-22T10:27:41;18.13;;;5.07;;
8458;SDS011;4266;48.816;9.154;2023-12-22T10:30:07;12.60;;;4.30;;
8458;SDS011;4266;48.816;9.154;2023-12-22T10:32:33;13.97;;;5.47;;
8458;SDS011;4266;48.816;9.154;2023-12-22T10:34:59;12.80;;;4.73;;
8458;SDS011;4266;48.816;9.154;2023-12-22T10:37:25;16.63;;;5.17;;
8458;SDS011;4266;48.816;9.154;2023-12-22T10:39:53;13.23;;;4.60;;
8458;SDS011;4266;48.816;9.154;2023-12-22T10:42:18;14.70;;;4.83;;
8458;SDS011;4266;48.816;9.154;2023-12-22T10:44:44;14.20;;;4.77;;
8458;SDS011;4266;48.816;9.154;2023-12-22T10:47:10;12.93;;;5.23;;
8458;SDS011;4266;48.816;9.154;2023-12-22T10:49:35;12.33;;;4.80;;
8458;SDS011;4266;48.816;9.154;2023-12-22T10:52:02;14.70;;;6.30;;
8458;SDS011;4266;48.816;9.154;2023-12-22T10:54:28;13.60;;;4.90;;
8458;SDS011;4266;48.816;9.154;2023-12-22T10:56:57;12.83;;;4.77;;
8458;SDS011;4266;48.816;9.154;2023-12-22T10:59:22;11.67;;;4.73;;
8458;SDS011;4266;48.816;9.154;2023-12-22T11:01:47;12.43;;;4.33;;
8458;SDS011;4266;48.816;9.154;2023-12-22T11:04:13;7.43;;;3.90;;
8458;SDS011;4266;48.816;9.154;2023-12-22T11:06:40;10.60;;;3.80;;
8458;SDS011;4266;48.816;9.154;2023-12-22T11:09:07;8.40;;;3.67;;
8458;SDS011;4266;48.816;9.154;2023-12-22T11:11:33;6.43;;;3.40;;
8458;SDS011;4266;48.816;9.154;2023-12-22T11:14:00;5.83;;;3.80;;
8458;SDS011;4266;48.816;9.154;2023-12-22T11:16:25;7.93;;;3.80;;
8458;SDS011;4266;48.816;9.154;2023-12-22T11:18:52;8.27;;;3.50;;
8458;SDS011;4266;48.816;9.154;2023-12-22T11:21:17;5.60;;;3.53;;
8458;SDS011;4266;48.816;9.154;2023-12-22T11:23:43;6.90;;;3.43;;
8458;SDS011;4266;48.816;9.154;2023-12-22T11:26:08;5.70;;;3.37;;
8458;SDS011;4266;48.816;9.154;2023-12-22T11:28:34;6.00;;;3.30;;
8458;SDS011;4266;48.816;9.154;2023-12-22T11:31:00;4.83;;;3.47;;
8458;SDS011;4266;48.816;9.154;2023-12-22T11:33:25;5.53;;;3.50;;
8458;SDS011;4266;48.816;9.154;2023-12-22T11:35:51;5.60;;;3.23;;
8458;SDS011;4266;48.816;9.154;2023-12-22T11:38:17;4.90;;;3.00;;
8458;SDS011;4266;48.816;9.154;2023-12-22T11:40:43;7.63;;;3.00;;
8458;SDS011;4266;48.816;9.154;2023-12-22T11:43:09;8.47;;;3.37;;
8458;SDS011;4266;48.816;9.154;2023-12-22T11:45:35;3.97;;;2.60;;
8458;SDS011;4266;48.816;9.154;2023-12-22T11:48:06;4.77;;;2.70;;
8458;SDS011;4266;48.816;9.154;2023-12-22T11:50:33;4.60;;;2.83;;
8458;SDS011;4266;48.816;9.154;2023-12-22T11:53:17;3.73;;;2.80;;
8458;SDS011;4266;48.816;9.154;2023-12-22T11:58:59;4.40;;;2.53;;
8458;SDS011;4266;48.816;9.154;2023-12-22T12:01:12;3.77;;;2.57;;
8458;SDS011;4266;48.816;9.154;2023-12-22T12:03:58;5.80;;;2.90;;
8458;SDS011;4266;48.816;9.154;2023-12-22T12:06:31;4.93;;;2.70;;
8458;SDS011;4266;48.816;9.154;2023-12-22T12:08:57;2.40;;;2.27;;
8458;SDS011;4266;48.816;9.154;2023-12-22T12:11:23;3.50;;;2.83;;
8458;SDS011;4266;48.816;9.154;2023-12-22T12:13:50;3.07;;;2.73;;
8458;SDS011;4266;48.816;9.154;2023-12-22T12:16:18;3.57;;;2.93;;
8458;SDS011;4266;48.816;9.154;2023-12-22T12:18:44;5.33;;;2.93;;
8458;SDS011;4266;48.816;9.154;2023-12-22T12:21:10;4.50;;;2.70;;
8458;SDS011;4266;48.816;9.154;2023-12-22T12:23:35;4.70;;;2.87;;
8458;SDS011;4266;48.816;9.154;2023-12-22T12:26:01;2.43;;;2.23;;
8458;SDS011;4266;48.816;9.154;2023-12-22T12:28:28;2.97;;;2.60;;
8458;SDS011;4266;48.816;9.154;2023-12-22T12:30:59;2.97;;;2.50;;
8458;SDS011;4266;48.816;9.154;2023-12-22T12:33:25;2.93;;;2.70;;
8458;SDS011;4266;48.816;9.154;2023-12-22T12:35:52;2.53;;;2.33;;
8458;SDS011;4266;48.816;9.154;2023-12-22T12:38:17;3.33;;;2.50;;
8458;SDS011;4266;48.816;9.154;2023-12-22T12:40:43;2.60;;;2.40;;
8458;SDS011;4266;48.816;9.154;2023-12-22T12:43:09;3.27;;;2.27;;
8458;SDS011;4266;48.816;9.154;2023-12-22T12:45:34;2.23;;;2.10;;
8458;SDS011;4266;48.816;9.154;2023-12-22T12:48:01;2.20;;;1.97;;
8458;SDS011;4266;48.816;9.154;2023-12-22T12:50:26;3.00;;;2.20;;
8458;SDS011;4266;48.816;9.154;2023-12-22T12:52:52;2.50;;;2.40;;
8458;SDS011;4266;48.816;9.154;2023-12-22T12:55:18;2.20;;;2.10;;
8458;SDS011;4266;48.816;9.154;2023-12-22T12:57:43;2.57;;;2.33;;
8458;SDS011;4266;48.816;9.154;2023-12-22T13:00:09;3.93;;;2.43;;
8458;SDS011;4266;48.816;9.154;2023-12-22T13:02:36;2.07;;;1.97;;
8458;SDS011;4266;48.816;9.154;2023-12-22T13:05:02;2.57;;;2.37;;
8458;SDS011;4266;48.816;9.154;2023-12-22T13:07:28;2.10;;;2.00;;
8458;SDS011;4266;48.816;9.154;2023-12-22T13:09:55;2.17;;;2.07;;
8458;SDS011;4266;48.816;9.154;2023-12-22T13:12:23;2.37;;;2.27;;
8458;SDS011;4266;48.816;9.154;2023-12-22T13:14:48;2.40;;;2.30;;
8458;SDS011;4266;48.816;9.154;2023-12-22T13:17:14;2.70;;;2.50;;
8458;SDS011;4266;48.816;9.154;2023-12-22T13:19:41;2.30;;;2.20;;
8458;SDS011;4266;48.816;9.154;2023-12-22T13:22:07;2.10;;;2.00;;
8458;SDS011;4266;48.816;9.154;2023-12-22T13:24:32;2.10;;;2.00;;
8458;SDS011;4266;48.816;9.154;2023-12-22T13:26:59;1.87;;;1.73;;
8458;SDS011;4266;48.816;9.154;2023-12-22T13:29:26;2.10;;;2.00;;
8458;SDS011;4266;48.816;9.154;2023-12-22T13:31:52;1.80;;;1.70;;
8458;SDS011;4266;48.816;9.154;2023-12-22T13:34:18;2.00;;;1.90;;
8458;SDS011;4266;48.816;9.154;2023-12-22T13:36:44;1.97;;;1.90;;
8458;SDS011;4266;48.816;9.154;2023-12-22T13:39:10;1.80;;;1.73;;
8458;SDS011;4266;48.816;9.154;2023-12-22T13:41:38;1.43;;;1.43;;
8458;SDS011;4266;48.816;9.154;2023-12-22T13:44:04;2.00;;;1.90;;
8458;SDS011;4266;48.816;9.154;2023-12-22T13:46:31;2.07;;;1.97;;
8458;SDS011;4266;48.816;9.154;2023-12-22T13:48:57;1.63;;;1.63;;
8458;SDS011;4266;48.816;9.154;2023-12-22T13:51:23;1.83;;;1.80;;
8458;SDS011;4266;48.816;9.154;2023-12-22T13:53:49;2.00;;;1.90;;
8458;SDS011;4266;48.816;9.154;2023-12-22T13:56:14;1.87;;;1.87;;
8458;SDS011;4266;48.816;9.154;2023-12-22T13:58:43;1.73;;;1.70;;
8458;SDS011;4266;48.816;9.154;2023-12-22T14:01:12;1.83;;;1.73;;
8458;SDS011;4266;48.816;9.154;2023-12-22T14:03:35;1.90;;;1.80;;
8458;SDS011;4266;48.816;9.154;2023-12-22T14:06:00;2.20;;;2.10;;
8458;SDS011;4266;48.816;9.154;2023-12-22T14:08:26;1.73;;;1.70;;
8458;SDS011;4266;48.816;9.154;2023-12-22T14:10:52;2.00;;;1.90;;
8458;SDS011;4266;48.816;9.154;2023-12-22T14:13:19;2.13;;;1.60;;
8458;SDS011;4266;48.816;9.154;2023-12-22T14:15:44;1.60;;;1.60;;
8458;SDS011;4266;48.816;9.154;2023-12-22T14:18:10;1.50;;;1.50;;
8458;SDS011;4266;48.816;9.154;2023-12-22T14:20:36;1.97;;;1.87;;
8458;SDS011;4266;48.816;9.154;2023-12-22T14:23:02;1.80;;;1.80;;
8458;SDS011;4266;48.816;9.154;2023-12-22T14:25:27;1.97;;;1.87;;
8458;SDS011;4266;48.816;9.154;2023-12-22T14:27:53;1.63;;;1.63;;
8458;SDS011;4266;48.816;9.154;2023-12-22T14:30:19;2.13;;;2.03;;
8458;SDS011;4266;48.816;9.154;2023-12-22T14:32:44;1.80;;;1.70;;
8458;SDS011;4266;48.816;9.154;2023-12-22T14:35:10;1.57;;;1.57;;
8458;SDS011;4266;48.816;9.154;2023-12-22T14:37:36;1.60;;;1.60;;
8458;SDS011;4266;48.816;9.154;2023-12-22T14:40:02;2.10;;;2.00;;
8458;SDS011;4266;48.816;9.154;2023-12-22T14:42:28;1.93;;;1.90;;
8458;SDS011;4266;48.816;9.154;2023-12-22T14:44:54;1.60;;;1.60;;
8458;SDS011;4266;48.816;9.154;2023-12-22T14:47:20;1.50;;;1.50;;
8458;SDS011;4266;48.816;9.154;2023-12-22T14:49:46;1.77;;;1.77;;
8458;SDS011;4266;48.816;9.154;2023-12-22T14:52:12;1.50;;;1.47;;
8458;SDS011;4266;48.816;9.154;2023-12-22T14:54:37;2.10;;;2.00;;
8458;SDS011;4266;48.816;9.154;2023-12-22T14:57:03;2.97;;;2.77;;
8458;SDS011;4266;48.816;9.154;2023-12-22T14:59:30;2.30;;;2.20;;
8458;SDS011;4266;48.816;9.154;2023-12-22T15:01:55;2.10;;;1.93;;
8458;SDS011;4266;48.816;9.154;2023-12-22T15:04:22;1.80;;;1.70;;
8458;SDS011;4266;48.816;9.154;2023-12-22T15:06:48;2.40;;;1.90;;
8458;SDS011;4266;48.816;9.154;2023-12-22T15:09:15;2.10;;;2.00;;
8458;SDS011;4266;48.816;9.154;2023-12-22T15:11:41;2.07;;;2.00;;